sensor_id;sensor_type;location;lat;lon;timestamp;pressure;altitude;pressure_sealevel;temperature;humidity
72120;BME280;59993;53.052;18.576;2022-08-20T00:00:17;100323.50;;;24.16;81.68
72120;BME280;59993;53.052;18.576;2022-08-20T00:02:47;100314.75;;;24.27;81.49
72120;BME280;59993;53.052;18.576;2022-08-20T00:05:14;100322.47;;;24.30;80.83
72120;BME280;59993;53.052;18.576;2022-08-20T00:07:40;100319.72;;;24.10;81.54
72120;BME280;59993;53.052;18.576;2022-08-20T00:10:07;100318.91;;;24.10;81.82
72120;BME280;59993;53.052;18.576;2022-08-20T00:12:35;100322.88;;;24.21;81.91
72120;BME280;59993;53.052;18.576;2022-08-20T00:15:02;100333.00;;;23.99;82.92
72120;BME280;59993;53.052;18.576;2022-08-20T00:17:28;100333.25;;;24.04;82.72
72120;BME280;59993;53.052;18.576;2022-08-20T00:20:01;100345.38;;;24.15;82.79
72120;BME280;59993;53.052;18.576;2022-08-20T00:22:27;100350.53;;;24.03;83.48
72120;BME280;59993;53.052;18.576;2022-08-20T00:24:52;100350.22;;;23.84;85.11
72120;BME280;59993;53.052;18.576;2022-08-20T00:27:18;100344.56;;;23.79;85.25
72120;BME280;59993;53.052;18.576;2022-08-20T00:29:43;100350.09;;;23.99;84.38
72120;BME280;59993;53.052;18.576;2022-08-20T00:32:09;100358.44;;;23.98;85.05
72120;BME280;59993;53.052;18.576;2022-08-20T00:34:34;100358.44;;;23.98;85.09
72120;BME280;59993;53.052;18.576;2022-08-20T00:37:00;100365.06;;;23.88;85.63
72120;BME280;59993;53.052;18.576;2022-08-20T00:39:25;100360.88;;;23.86;85.48
72120;BME280;59993;53.052;18.576;2022-08-20T00:41:51;100366.22;;;23.79;86.21
72120;BME280;59993;53.052;18.576;2022-08-20T00:44:19;100344.75;;;23.71;86.02
72120;BME280;59993;53.052;18.576;2022-08-20T00:46:47;100347.44;;;23.64;86.13
72120;BME280;59993;53.052;18.576;2022-08-20T00:49:20;100350.13;;;23.64;86.90
72120;BME280;59993;53.052;18.576;2022-08-20T00:52:12;100348.28;;;23.71;86.29
72120;BME280;59993;53.052;18.576;2022-08-20T00:55:02;100362.81;;;23.64;86.26
72120;BME280;59993;53.052;18.576;2022-08-20T00:57:31;100371.97;;;23.63;86.36
72120;BME280;59993;53.052;18.576;2022-08-20T01:00:00;100355.50;;;23.57;86.88
72120;BME280;59993;53.052;18.576;2022-08-20T01:02:28;100355.66;;;23.49;86.27
72120;BME280;59993;53.052;18.576;2022-08-20T01:04:56;100363.31;;;23.46;86.36
72120;BME280;59993;53.052;18.576;2022-08-20T01:07:23;100353.19;;;23.54;85.87
72120;BME280;59993;53.052;18.576;2022-08-20T01:09:57;100358.13;;;23.44;85.62
72120;BME280;59993;53.052;18.576;2022-08-20T01:12:24;100348.09;;;23.38;85.56
72120;BME280;59993;53.052;18.576;2022-08-20T01:14:49;100343.06;;;23.35;84.50
72120;BME280;59993;53.052;18.576;2022-08-20T01:17:19;100331.66;;;23.39;85.39
72120;BME280;59993;53.052;18.576;2022-08-20T01:19:54;100339.97;;;23.38;85.19
72120;BME280;59993;53.052;18.576;2022-08-20T01:25:52;100343.84;;;23.22;84.33
72120;BME280;59993;53.052;18.576;2022-08-20T01:28:35;100343.78;;;23.15;84.31
72120;BME280;59993;53.052;18.576;2022-08-20T01:31:03;100341.59;;;23.04;84.55
72120;BME280;59993;53.052;18.576;2022-08-20T01:33:29;100345.41;;;23.10;84.04
72120;BME280;59993;53.052;18.576;2022-08-20T01:35:56;100344.56;;;23.09;83.97
72120;BME280;59993;53.052;18.576;2022-08-20T01:38:22;100336.91;;;22.91;85.20
72120;BME280;59993;53.052;18.576;2022-08-20T01:43:25;100339.44;;;22.71;86.04
72120;BME280;59993;53.052;18.576;2022-08-20T01:45:51;100346.78;;;22.77;85.67
72120;BME280;59993;53.052;18.576;2022-08-20T01:48:18;100330.78;;;22.54;86.34
72120;BME280;59993;53.052;18.576;2022-08-20T01:50:50;100340.56;;;22.55;86.29
72120;BME280;59993;53.052;18.576;2022-08-20T01:53:26;100339.25;;;22.73;84.91
72120;BME280;59993;53.052;18.576;2022-08-20T01:55:54;100333.72;;;22.59;86.22
72120;BME280;59993;53.052;18.576;2022-08-20T01:58:20;100331.34;;;22.71;85.29
72120;BME280;59993;53.052;18.576;2022-08-20T02:00:45;100336.81;;;22.56;86.09
72120;BME280;59993;53.052;18.576;2022-08-20T02:03:11;100352.44;;;22.39;87.46
72120;BME280;59993;53.052;18.576;2022-08-20T02:05:36;100353.97;;;22.48;86.92
72120;BME280;59993;53.052;18.576;2022-08-20T02:08:03;100357.19;;;22.80;85.81
72120;BME280;59993;53.052;18.576;2022-08-20T02:10:29;100352.13;;;22.70;86.17
72120;BME280;59993;53.052;18.576;2022-08-20T02:12:56;100351.56;;;22.53;87.34
72120;BME280;59993;53.052;18.576;2022-08-20T02:15:23;100365.25;;;22.52;87.67
72120;BME280;59993;53.052;18.576;2022-08-20T02:17:49;100375.09;;;22.60;88.08
72120;BME280;59993;53.052;18.576;2022-08-20T02:20:17;100355.41;;;22.66;87.52
72120;BME280;59993;53.052;18.576;2022-08-20T02:22:46;100365.59;;;22.64;87.95
72120;BME280;59993;53.052;18.576;2022-08-20T02:25:13;100355.53;;;22.36;89.84
72120;BME280;59993;53.052;18.576;2022-08-20T02:27:42;100366.91;;;22.53;89.40
72120;BME280;59993;53.052;18.576;2022-08-20T02:30:14;100361.59;;;22.60;89.00
72120;BME280;59993;53.052;18.576;2022-08-20T02:32:40;100356.00;;;22.61;88.92
72120;BME280;59993;53.052;18.576;2022-08-20T02:35:09;100359.28;;;22.57;89.43
72120;BME280;59993;53.052;18.576;2022-08-20T02:37:37;100351.94;;;22.50;89.91
72120;BME280;59993;53.052;18.576;2022-08-20T02:40:05;100362.03;;;22.42;90.93
72120;BME280;59993;53.052;18.576;2022-08-20T02:42:33;100353.31;;;22.25;91.53
72120;BME280;59993;53.052;18.576;2022-08-20T02:44:59;100362.75;;;22.50;90.84
72120;BME280;59993;53.052;18.576;2022-08-20T02:47:24;100374.06;;;22.61;90.06
72120;BME280;59993;53.052;18.576;2022-08-20T02:49:54;100368.94;;;22.44;91.01
72120;BME280;59993;53.052;18.576;2022-08-20T02:52:20;100371.06;;;22.49;90.97
72120;BME280;59993;53.052;18.576;2022-08-20T02:54:46;100363.25;;;22.39;91.86
72120;BME280;59993;53.052;18.576;2022-08-20T02:57:16;100361.84;;;22.43;91.53
72120;BME280;59993;53.052;18.576;2022-08-20T02:59:45;100362.38;;;22.53;91.24
72120;BME280;59993;53.052;18.576;2022-08-20T03:02:11;100354.38;;;22.45;91.80
72120;BME280;59993;53.052;18.576;2022-08-20T03:04:36;100347.31;;;22.44;91.25
72120;BME280;59993;53.052;18.576;2022-08-20T03:07:04;100336.50;;;22.44;91.84
72120;BME280;59993;53.052;18.576;2022-08-20T03:09:30;100335.03;;;22.27;92.63
72120;BME280;59993;53.052;18.576;2022-08-20T03:11:56;100337.34;;;22.45;92.48
72120;BME280;59993;53.052;18.576;2022-08-20T03:14:21;100338.16;;;22.45;92.55
72120;BME280;59993;53.052;18.576;2022-08-20T03:16:47;100334.41;;;22.25;92.30
72120;BME280;59993;53.052;18.576;2022-08-20T03:19:13;100337.88;;;22.18;93.41
72120;BME280;59993;53.052;18.576;2022-08-20T03:21:39;100342.78;;;22.15;93.30
72120;BME280;59993;53.052;18.576;2022-08-20T03:24:05;100345.25;;;22.10;94.27
72120;BME280;59993;53.052;18.576;2022-08-20T03:26:30;100346.66;;;22.27;92.95
72120;BME280;59993;53.052;18.576;2022-08-20T03:28:56;100338.69;;;22.19;92.20
72120;BME280;59993;53.052;18.576;2022-08-20T03:31:22;100329.03;;;22.10;93.12
72120;BME280;59993;53.052;18.576;2022-08-20T03:33:47;100335.63;;;22.22;93.00
72120;BME280;59993;53.052;18.576;2022-08-20T03:36:13;100343.47;;;22.32;92.47
72120;BME280;59993;53.052;18.576;2022-08-20T03:38:38;100332.91;;;22.22;93.46
72120;BME280;59993;53.052;18.576;2022-08-20T03:41:04;100357.22;;;22.37;92.78
72120;BME280;59993;53.052;18.576;2022-08-20T03:43:30;100350.78;;;22.38;91.95
72120;BME280;59993;53.052;18.576;2022-08-20T03:45:55;100353.22;;;22.18;93.87
72120;BME280;59993;53.052;18.576;2022-08-20T03:48:21;100345.22;;;22.25;93.23
72120;BME280;59993;53.052;18.576;2022-08-20T03:50:48;100352.56;;;22.31;93.14
72120;BME280;59993;53.052;18.576;2022-08-20T03:53:15;100350.84;;;22.30;93.21
72120;BME280;59993;53.052;18.576;2022-08-20T03:55:43;100354.44;;;22.15;93.19
72120;BME280;59993;53.052;18.576;2022-08-20T03:58:11;100358.31;;;22.28;92.95
72120;BME280;59993;53.052;18.576;2022-08-20T04:00:45;100344.53;;;22.23;93.39
72120;BME280;59993;53.052;18.576;2022-08-20T04:03:12;100358.31;;;22.28;93.42
72120;BME280;59993;53.052;18.576;2022-08-20T04:05:39;100347.91;;;22.25;92.75
72120;BME280;59993;53.052;18.576;2022-08-20T04:08:08;100351.25;;;22.27;92.84
72120;BME280;59993;53.052;18.576;2022-08-20T04:10:35;100352.06;;;22.27;92.95
72120;BME280;59993;53.052;18.576;2022-08-20T04:13:02;100346.78;;;22.34;92.42
72120;BME280;59993;53.052;18.576;2022-08-20T04:15:27;100344.88;;;22.13;93.64
72120;BME280;59993;53.052;18.576;2022-08-20T04:17:53;100337.34;;;22.08;94.05
72120;BME280;59993;53.052;18.576;2022-08-20T04:20:22;100342.31;;;22.26;93.40
72120;BME280;59993;53.052;18.576;2022-08-20T04:22:51;100336.91;;;22.26;93.23
72120;BME280;59993;53.052;18.576;2022-08-20T04:25:17;100342.28;;;22.05;94.72
72120;BME280;59993;53.052;18.576;2022-08-20T04:27:43;100345.28;;;22.31;93.78
72120;BME280;59993;53.052;18.576;2022-08-20T04:30:12;100350.41;;;22.26;93.96
72120;BME280;59993;53.052;18.576;2022-08-20T04:32:41;100344.66;;;22.14;94.65
72120;BME280;59993;53.052;18.576;2022-08-20T04:35:10;100349.88;;;22.31;94.36
72120;BME280;59993;53.052;18.576;2022-08-20T04:37:40;100348.09;;;22.38;93.78
72120;BME280;59993;53.052;18.576;2022-08-20T04:40:09;100344.53;;;22.23;95.23
72120;BME280;59993;53.052;18.576;2022-08-20T04:42:53;100336.63;;;22.36;94.71
72120;BME280;59993;53.052;18.576;2022-08-20T04:45:19;100335.34;;;22.32;94.93
72120;BME280;59993;53.052;18.576;2022-08-20T04:47:47;100332.75;;;22.45;93.91
72120;BME280;59993;53.052;18.576;2022-08-20T04:50:14;100335.28;;;22.47;94.14
72120;BME280;59993;53.052;18.576;2022-08-20T04:52:40;100329.88;;;22.47;94.21
72120;BME280;59993;53.052;18.576;2022-08-20T04:55:06;100328.78;;;22.41;94.74
72120;BME280;59993;53.052;18.576;2022-08-20T04:57:32;100322.88;;;22.31;94.98
72120;BME280;59993;53.052;18.576;2022-08-20T04:59:58;100316.13;;;22.42;95.35
72120;BME280;59993;53.052;18.576;2022-08-20T05:02:24;100311.44;;;22.50;94.70
72120;BME280;59993;53.052;18.576;2022-08-20T05:04:50;100314.31;;;22.49;94.37
72120;BME280;59993;53.052;18.576;2022-08-20T05:07:16;100314.13;;;22.50;94.43
72120;BME280;59993;53.052;18.576;2022-08-20T05:09:45;100310.75;;;22.48;95.40
72120;BME280;59993;53.052;18.576;2022-08-20T05:12:11;100309.88;;;22.41;95.95
72120;BME280;59993;53.052;18.576;2022-08-20T05:14:40;100308.06;;;22.48;95.17
72120;BME280;59993;53.052;18.576;2022-08-20T05:17:06;100309.13;;;22.47;95.34
72120;BME280;59993;53.052;18.576;2022-08-20T05:19:33;100305.25;;;22.35;95.86
72120;BME280;59993;53.052;18.576;2022-08-20T05:22:00;100314.94;;;22.51;95.57
72120;BME280;59993;53.052;18.576;2022-08-20T05:24:26;100317.97;;;22.63;94.83
72120;BME280;59993;53.052;18.576;2022-08-20T05:26:51;100328.19;;;22.67;94.60
72120;BME280;59993;53.052;18.576;2022-08-20T05:29:19;100337.78;;;22.48;95.20
72120;BME280;59993;53.052;18.576;2022-08-20T05:31:46;100340.28;;;22.50;95.36
72120;BME280;59993;53.052;18.576;2022-08-20T05:34:11;100345.00;;;22.63;94.70
72120;BME280;59993;53.052;18.576;2022-08-20T05:36:43;100345.81;;;22.63;95.34
72120;BME280;59993;53.052;18.576;2022-08-20T05:39:10;100347.94;;;22.68;95.02
72120;BME280;59993;53.052;18.576;2022-08-20T05:41:38;100347.03;;;22.61;95.40
72120;BME280;59993;53.052;18.576;2022-08-20T05:44:06;100347.13;;;22.67;95.63
72120;BME280;59993;53.052;18.576;2022-08-20T05:46:35;100342.53;;;22.68;95.35
72120;BME280;59993;53.052;18.576;2022-08-20T05:49:05;100348.84;;;22.75;95.18
72120;BME280;59993;53.052;18.576;2022-08-20T05:51:31;100352.69;;;22.87;94.33
72120;BME280;59993;53.052;18.576;2022-08-20T05:53:57;100357.97;;;22.74;94.44
72120;BME280;59993;53.052;18.576;2022-08-20T05:56:22;100363.56;;;22.73;95.55
72120;BME280;59993;53.052;18.576;2022-08-20T05:58:48;100362.56;;;22.74;95.54
72120;BME280;59993;53.052;18.576;2022-08-20T06:01:13;100363.47;;;22.81;95.18
72120;BME280;59993;53.052;18.576;2022-08-20T06:03:39;100365.13;;;22.60;96.20
72120;BME280;59993;53.052;18.576;2022-08-20T06:06:23;100374.06;;;22.61;96.47
72120;BME280;59993;53.052;18.576;2022-08-20T06:08:48;100368.28;;;22.64;96.63
72120;BME280;59993;53.052;18.576;2022-08-20T06:11:14;100371.44;;;22.67;96.58
72120;BME280;59993;53.052;18.576;2022-08-20T06:13:39;100377.47;;;22.69;96.21
72120;BME280;59993;53.052;18.576;2022-08-20T06:16:05;100379.09;;;22.85;95.63
72120;BME280;59993;53.052;18.576;2022-08-20T06:18:30;100372.19;;;22.83;96.24
72120;BME280;59993;53.052;18.576;2022-08-20T06:20:56;100367.69;;;22.90;94.97
72120;BME280;59993;53.052;18.576;2022-08-20T06:23:21;100361.22;;;22.91;95.86
72120;BME280;59993;53.052;18.576;2022-08-20T06:25:49;100371.72;;;23.01;94.76
72120;BME280;59993;53.052;18.576;2022-08-20T06:28:15;100364.22;;;22.96;94.75
72120;BME280;59993;53.052;18.576;2022-08-20T06:30:41;100373.53;;;22.94;95.45
72120;BME280;59993;53.052;18.576;2022-08-20T06:33:06;100363.22;;;23.04;94.03
72120;BME280;59993;53.052;18.576;2022-08-20T06:35:32;100369.66;;;23.03;94.15
72120;BME280;59993;53.052;18.576;2022-08-20T06:37:58;100375.31;;;23.08;93.63
72120;BME280;59993;53.052;18.576;2022-08-20T06:40:26;100371.63;;;23.44;92.30
72120;BME280;59993;53.052;18.576;2022-08-20T06:42:53;100371.91;;;23.49;91.58
72120;BME280;59993;53.052;18.576;2022-08-20T06:45:22;100374.34;;;23.44;91.72
72120;BME280;59993;53.052;18.576;2022-08-20T06:47:54;100369.19;;;23.49;91.77
72120;BME280;59993;53.052;18.576;2022-08-20T06:50:23;100366.72;;;23.54;92.22
72120;BME280;59993;53.052;18.576;2022-08-20T06:52:49;100372.78;;;23.56;91.29
72120;BME280;59993;53.052;18.576;2022-08-20T06:55:15;100372.44;;;23.73;90.33
72120;BME280;59993;53.052;18.576;2022-08-20T06:57:42;100367.50;;;23.83;88.79
72120;BME280;59993;53.052;18.576;2022-08-20T07:00:14;100360.09;;;23.99;88.91
72120;BME280;59993;53.052;18.576;2022-08-20T07:02:40;100358.25;;;24.12;87.99
72120;BME280;59993;53.052;18.576;2022-08-20T07:05:06;100368.88;;;24.14;88.07
72120;BME280;59993;53.052;18.576;2022-08-20T07:07:32;100366.88;;;24.29;87.73
72120;BME280;59993;53.052;18.576;2022-08-20T07:10:09;100366.47;;;24.33;86.25
72120;BME280;59993;53.052;18.576;2022-08-20T07:12:36;100361.03;;;24.33;86.67
72120;BME280;59993;53.052;18.576;2022-08-20T07:15:06;100369.81;;;24.48;86.19
72120;BME280;59993;53.052;18.576;2022-08-20T07:17:34;100361.88;;;24.40;85.80
72120;BME280;59993;53.052;18.576;2022-08-20T07:20:10;100363.75;;;24.46;86.31
72120;BME280;59993;53.052;18.576;2022-08-20T07:22:37;100370.25;;;24.45;85.58
72120;BME280;59993;53.052;18.576;2022-08-20T07:25:05;100366.06;;;24.42;86.01
72120;BME280;59993;53.052;18.576;2022-08-20T07:27:32;100362.69;;;24.34;85.58
72120;BME280;59993;53.052;18.576;2022-08-20T07:29:58;100363.34;;;24.36;86.34
72120;BME280;59993;53.052;18.576;2022-08-20T07:32:42;100361.03;;;24.39;85.88
72120;BME280;59993;53.052;18.576;2022-08-20T07:35:15;100360.63;;;24.36;85.68
72120;BME280;59993;53.052;18.576;2022-08-20T07:37:43;100368.72;;;24.22;86.41
72120;BME280;59993;53.052;18.576;2022-08-20T07:40:18;100370.41;;;24.37;86.22
72120;BME280;59993;53.052;18.576;2022-08-20T07:42:44;100366.88;;;24.29;86.41
72120;BME280;59993;53.052;18.576;2022-08-20T07:45:11;100364.34;;;24.21;85.57
72120;BME280;59993;53.052;18.576;2022-08-20T07:47:39;100359.31;;;24.11;86.17
72120;BME280;59993;53.052;18.576;2022-08-20T07:50:12;100369.34;;;24.24;86.20
72120;BME280;59993;53.052;18.576;2022-08-20T07:52:37;100375.56;;;24.18;85.33
72120;BME280;59993;53.052;18.576;2022-08-20T07:55:08;100377.06;;;24.27;85.46
72120;BME280;59993;53.052;18.576;2022-08-20T07:57:35;100373.94;;;24.24;85.56
72120;BME280;59993;53.052;18.576;2022-08-20T08:00:06;100373.94;;;24.30;85.35
72120;BME280;59993;53.052;18.576;2022-08-20T08:02:33;100369.38;;;24.38;85.79
72120;BME280;59993;53.052;18.576;2022-08-20T08:04:59;100375.56;;;24.18;86.40
72120;BME280;59993;53.052;18.576;2022-08-20T08:07:26;100383.06;;;24.16;87.00
72120;BME280;59993;53.052;18.576;2022-08-20T08:09:51;100380.31;;;24.03;87.29
72120;BME280;59993;53.052;18.576;2022-08-20T08:12:17;100383.84;;;24.03;87.90
72120;BME280;59993;53.052;18.576;2022-08-20T08:14:44;100380.09;;;23.98;88.16
72120;BME280;59993;53.052;18.576;2022-08-20T08:17:11;100383.44;;;24.00;87.67
72120;BME280;59993;53.052;18.576;2022-08-20T08:19:42;100377.38;;;23.98;87.80
72120;BME280;59993;53.052;18.576;2022-08-20T08:22:12;100386.94;;;23.93;88.57
72120;BME280;59993;53.052;18.576;2022-08-20T08:24:40;100390.94;;;23.98;88.21
72120;BME280;59993;53.052;18.576;2022-08-20T08:27:07;100396.75;;;23.94;88.65
72120;BME280;59993;53.052;18.576;2022-08-20T08:29:33;100385.47;;;23.91;88.78
72120;BME280;59993;53.052;18.576;2022-08-20T08:32:01;100394.66;;;23.97;89.17
72120;BME280;59993;53.052;18.576;2022-08-20T08:34:27;100395.13;;;24.07;88.56
72120;BME280;59993;53.052;18.576;2022-08-20T08:36:53;100385.13;;;24.14;88.03
72120;BME280;59993;53.052;18.576;2022-08-20T08:39:19;100381.81;;;24.12;88.35
72120;BME280;59993;53.052;18.576;2022-08-20T08:41:47;100387.28;;;24.32;87.40
72120;BME280;59993;53.052;18.576;2022-08-20T08:44:24;100390.66;;;24.41;87.19
72120;BME280;59993;53.052;18.576;2022-08-20T08:47:06;100384.41;;;24.47;86.61
72120;BME280;59993;53.052;18.576;2022-08-20T08:49:38;100386.09;;;24.55;85.15
72120;BME280;59993;53.052;18.576;2022-08-20T08:54:42;100406.78;;;24.76;84.77
72120;BME280;59993;53.052;18.576;2022-08-20T08:57:10;100418.69;;;24.81;82.64
72120;BME280;59993;53.052;18.576;2022-08-20T08:59:36;100413.28;;;24.81;81.53
72120;BME280;59993;53.052;18.576;2022-08-20T09:02:01;100422.88;;;24.84;82.22
72120;BME280;59993;53.052;18.576;2022-08-20T09:04:33;100419.09;;;24.72;82.88
72120;BME280;59993;53.052;18.576;2022-08-20T09:07:02;100414.72;;;24.71;83.98
72120;BME280;59993;53.052;18.576;2022-08-20T09:09:31;100421.81;;;24.78;82.48
72120;BME280;59993;53.052;18.576;2022-08-20T09:12:03;100413.47;;;24.67;82.72
72120;BME280;59993;53.052;18.576;2022-08-20T09:14:30;100406.31;;;24.52;83.40
72120;BME280;59993;53.052;18.576;2022-08-20T09:16:55;100408.38;;;24.50;83.13
72120;BME280;59993;53.052;18.576;2022-08-20T09:19:23;100411.09;;;24.50;83.22
72120;BME280;59993;53.052;18.576;2022-08-20T09:21:49;100411.78;;;24.65;81.77
72120;BME280;59993;53.052;18.576;2022-08-20T09:24:15;100410.34;;;24.70;82.44
72120;BME280;59993;53.052;18.576;2022-08-20T09:26:40;100409.09;;;24.79;82.01
72120;BME280;59993;53.052;18.576;2022-08-20T09:29:06;100403.06;;;24.77;81.55
72120;BME280;59993;53.052;18.576;2022-08-20T09:31:31;100406.16;;;24.67;82.09
72120;BME280;59993;53.052;18.576;2022-08-20T09:33:57;100401.94;;;24.51;82.05
72120;BME280;59993;53.052;18.576;2022-08-20T09:36:23;100403.63;;;24.52;82.58
72120;BME280;59993;53.052;18.576;2022-08-20T09:38:48;100403.22;;;24.62;81.96
72120;BME280;59993;53.052;18.576;2022-08-20T09:41:14;100400.75;;;24.80;82.61
72120;BME280;59993;53.052;18.576;2022-08-20T09:43:40;100402.03;;;25.05;81.55
72120;BME280;59993;53.052;18.576;2022-08-20T09:46:05;100393.69;;;25.13;81.65
72120;BME280;59993;53.052;18.576;2022-08-20T09:48:30;100401.00;;;25.39;80.28
72120;BME280;59993;53.052;18.576;2022-08-20T09:50:56;100401.63;;;25.34;79.29
72120;BME280;59993;53.052;18.576;2022-08-20T09:53:22;100396.81;;;25.36;80.26
72120;BME280;59993;53.052;18.576;2022-08-20T09:55:51;100394.88;;;25.64;79.00
72120;BME280;59993;53.052;18.576;2022-08-20T10:00:45;100388.53;;;25.97;79.15
72120;BME280;59993;53.052;18.576;2022-08-20T10:03:11;100389.16;;;26.05;77.71
72120;BME280;59993;53.052;18.576;2022-08-20T10:05:36;100386.84;;;26.02;78.87
72120;BME280;59993;53.052;18.576;2022-08-20T10:08:09;100390.84;;;26.38;78.44
72120;BME280;59993;53.052;18.576;2022-08-20T10:10:35;100391.56;;;26.27;76.38
72120;BME280;59993;53.052;18.576;2022-08-20T10:13:01;100393.22;;;26.60;76.66
72120;BME280;59993;53.052;18.576;2022-08-20T10:15:27;100384.28;;;26.21;74.80
72120;BME280;59993;53.052;18.576;2022-08-20T10:17:53;100389.84;;;26.33;73.91
72120;BME280;59993;53.052;18.576;2022-08-20T10:20:19;100392.16;;;26.29;74.22
72120;BME280;59993;53.052;18.576;2022-08-20T10:22:44;100382.00;;;26.11;75.72
72120;BME280;59993;53.052;18.576;2022-08-20T10:25:10;100385.06;;;26.28;75.55
72120;BME280;59993;53.052;18.576;2022-08-20T10:27:37;100384.91;;;26.55;72.61
72120;BME280;59993;53.052;18.576;2022-08-20T10:30:05;100391.22;;;26.49;72.48
72120;BME280;59993;53.052;18.576;2022-08-20T10:32:31;100385.63;;;26.44;70.75
72120;BME280;59993;53.052;18.576;2022-08-20T10:34:56;100377.31;;;26.70;69.32
72120;BME280;59993;53.052;18.576;2022-08-20T10:37:24;100383.34;;;26.40;67.92
72120;BME280;59993;53.052;18.576;2022-08-20T10:39:50;100382.13;;;26.30;68.32
72120;BME280;59993;53.052;18.576;2022-08-20T10:42:16;100373.97;;;26.68;68.19
72120;BME280;59993;53.052;18.576;2022-08-20T10:44:42;100376.75;;;26.87;67.81
72120;BME280;59993;53.052;18.576;2022-08-20T10:47:28;100373.44;;;26.85;67.15
72120;BME280;59993;53.052;18.576;2022-08-20T10:49:56;100373.22;;;26.54;67.23
72120;BME280;59993;53.052;18.576;2022-08-20T10:52:22;100381.31;;;26.93;68.62
72120;BME280;59993;53.052;18.576;2022-08-20T10:54:48;100376.06;;;26.98;68.79
72120;BME280;59993;53.052;18.576;2022-08-20T10:57:25;100378.91;;;26.78;68.93
72120;BME280;59993;53.052;18.576;2022-08-20T10:59:53;100375.53;;;26.83;68.78
72120;BME280;59993;53.052;18.576;2022-08-20T11:02:19;100374.53;;;27.02;68.36
72120;BME280;59993;53.052;18.576;2022-08-20T11:04:46;100377.22;;;27.09;68.78
72120;BME280;59993;53.052;18.576;2022-08-20T11:07:16;100372.53;;;27.16;69.33
72120;BME280;59993;53.052;18.576;2022-08-20T11:09:43;100376.41;;;27.27;67.51
72120;BME280;59993;53.052;18.576;2022-08-20T11:12:08;100371.16;;;27.07;67.40
72120;BME280;59993;53.052;18.576;2022-08-20T11:14:34;100368.69;;;27.24;66.92
72120;BME280;59993;53.052;18.576;2022-08-20T11:17:00;100370.66;;;27.17;66.32
72120;BME280;59993;53.052;18.576;2022-08-20T11:19:26;100363.25;;;27.24;66.49
72120;BME280;59993;53.052;18.576;2022-08-20T11:21:51;100362.19;;;27.25;66.01
72120;BME280;59993;53.052;18.576;2022-08-20T11:24:17;100359.53;;;27.43;64.51
72120;BME280;59993;53.052;18.576;2022-08-20T11:26:45;100353.78;;;27.33;64.34
72120;BME280;59993;53.052;18.576;2022-08-20T11:29:12;100360.44;;;27.37;63.49
72120;BME280;59993;53.052;18.576;2022-08-20T11:31:38;100357.44;;;27.45;63.40
72120;BME280;59993;53.052;18.576;2022-08-20T11:34:04;100353.63;;;27.46;63.37
72120;BME280;59993;53.052;18.576;2022-08-20T11:36:30;100355.28;;;27.47;62.70
72120;BME280;59993;53.052;18.576;2022-08-20T11:38:55;100351.06;;;27.52;62.85
72120;BME280;59993;53.052;18.576;2022-08-20T11:41:21;100357.19;;;27.65;61.10
72120;BME280;59993;53.052;18.576;2022-08-20T11:43:46;100360.00;;;27.96;61.98
72120;BME280;59993;53.052;18.576;2022-08-20T11:46:12;100361.97;;;27.70;61.40
72120;BME280;59993;53.052;18.576;2022-08-20T11:48:38;100368.75;;;27.79;61.36
72120;BME280;59993;53.052;18.576;2022-08-20T11:51:04;100360.88;;;27.90;62.13
72120;BME280;59993;53.052;18.576;2022-08-20T11:53:29;100361.47;;;27.92;60.97
72120;BME280;59993;53.052;18.576;2022-08-20T11:55:55;100344.34;;;27.73;61.16
72120;BME280;59993;53.052;18.576;2022-08-20T11:58:21;100340.69;;;27.79;61.79
72120;BME280;59993;53.052;18.576;2022-08-20T12:00:47;100330.03;;;27.96;61.41
72120;BME280;59993;53.052;18.576;2022-08-20T12:03:12;100335.47;;;27.96;61.03
72120;BME280;59993;53.052;18.576;2022-08-20T12:05:40;100342.59;;;27.97;61.04
72120;BME280;59993;53.052;18.576;2022-08-20T12:08:06;100338.50;;;27.69;62.99
72120;BME280;59993;53.052;18.576;2022-08-20T12:10:32;100334.84;;;27.75;62.26
72120;BME280;59993;53.052;18.576;2022-08-20T12:12:58;100334.25;;;27.92;62.56
72120;BME280;59993;53.052;18.576;2022-08-20T12:15:24;100336.38;;;28.08;61.91
72120;BME280;59993;53.052;18.576;2022-08-20T12:17:51;100336.03;;;28.16;62.01
72120;BME280;59993;53.052;18.576;2022-08-20T12:20:16;100344.91;;;27.93;61.17
72120;BME280;59993;53.052;18.576;2022-08-20T12:22:42;100339.53;;;28.05;58.78
72120;BME280;59993;53.052;18.576;2022-08-20T12:25:11;100335.94;;;28.23;56.79
72120;BME280;59993;53.052;18.576;2022-08-20T12:27:37;100338.44;;;28.25;57.49
72120;BME280;59993;53.052;18.576;2022-08-20T12:30:06;100349.16;;;28.38;57.64
72120;BME280;59993;53.052;18.576;2022-08-20T12:32:33;100350.09;;;28.32;59.73
72120;BME280;59993;53.052;18.576;2022-08-20T12:35:00;100348.13;;;28.21;59.54
72120;BME280;59993;53.052;18.576;2022-08-20T12:37:27;100349.34;;;28.25;60.00
72120;BME280;59993;53.052;18.576;2022-08-20T12:39:55;100350.91;;;27.83;59.94
72120;BME280;59993;53.052;18.576;2022-08-20T12:42:21;100353.66;;;27.65;62.62
72120;BME280;59993;53.052;18.576;2022-08-20T12:44:47;100346.44;;;28.08;60.68
72120;BME280;59993;53.052;18.576;2022-08-20T12:47:21;100351.88;;;28.38;59.05
72120;BME280;59993;53.052;18.576;2022-08-20T12:49:53;100347.03;;;28.40;57.44
72120;BME280;59993;53.052;18.576;2022-08-20T12:52:22;100349.41;;;28.48;57.64